Time;durP1;ratioP1;P1;durP2;ratioP2;P2;SDS_P1;SDS_P2;PMS_P1;PMS_P2;Temp;Humidity;BMP_temperature;BMP_pressure;BME280_temperature;BME280_humidity;BME280_pressure;Samples;Min_cycle;Max_cycle;Signal;HPM_P1;HPM_P2
2023/09/17 00:00:29;;;;;;;0.55;0.32;;;;;;;;;;5023877;28;20046;-83
2023/09/17 00:02:55;;;;;;;0.30;0.30;;;;;;;;;;5016049;28;20033;-83
2023/09/17 00:05:22;;;;;;;0.30;0.30;;;;;;;;;;5028114;28;20041;-83
2023/09/17 00:07:48;;;;;;;0.55;0.55;;;;;;;;;;5027963;28;20045;-84
2023/09/17 00:10:14;;;;;;;0.38;0.30;;;;;;;;;;5011549;28;20175;-83
2023/09/17 00:12:40;;;;;;;0.38;0.38;;;;;;;;;;5025618;28;20064;-83
2023/09/17 00:15:07;;;;;;;0.20;0.10;;;;;;;;;;5012467;28;20060;-82
2023/09/17 00:17:33;;;;;;;0.57;0.38;;;;;;;;;;5011513;28;20497;-83
2023/09/17 00:19:59;;;;;;;0.28;0.28;;;;;;;;;;5024222;28;20414;-83
2023/09/17 00:22:25;;;;;;;0.20;0.20;;;;;;;;;;5029681;28;20045;-83
2023/09/17 00:24:51;;;;;;;0.40;0.30;;;;;;;;;;5013863;28;20045;-84
2023/09/17 00:27:17;;;;;;;0.32;0.22;;;;;;;;;;5027036;28;20053;-84
2023/09/17 00:29:43;;;;;;;0.55;0.50;;;;;;;;;;5011018;28;20045;-84
2023/09/17 00:32:09;;;;;;;0.40;0.30;;;;;;;;;;5026607;28;20115;-84
2023/09/17 00:34:35;;;;;;;0.85;0.77;;;;;;;;;;5007924;28;20049;-82
2023/09/17 00:37:01;;;;;;;0.35;0.25;;;;;;;;;;5027630;28;20052;-82
2023/09/17 00:39:27;;;;;;;1.30;0.47;;;;;;;;;;5034610;28;20052;-81
2023/09/17 00:41:54;;;;;;;0.30;0.30;;;;;;;;;;5018167;28;20128;-82
2023/09/17 00:44:20;;;;;;;0.30;0.20;;;;;;;;;;5015496;28;20041;-80
2023/09/17 00:46:46;;;;;;;0.20;0.10;;;;;;;;;;5031430;28;20087;-82
2023/09/17 00:49:14;;;;;;;0.20;0.08;;;;;;;;;;5032531;28;20038;-83
2023/09/17 00:51:44;;;;;;;0.35;0.35;;;;;;;;;;5024772;28;20116;-80
2023/09/17 00:54:11;;;;;;;0.40;0.40;;;;;;;;;;5029668;28;20093;-82
2023/09/17 00:56:37;;;;;;;0.63;0.43;;;;;;;;;;5020858;28;20041;-81
2023/09/17 00:59:05;;;;;;;0.20;0.10;;;;;;;;;;5019974;28;20017;-81
2023/09/17 01:01:32;;;;;;;0.85;0.40;;;;;;;;;;5022794;28;20037;-80
2023/09/17 01:03:58;;;;;;;0.20;0.17;;;;;;;;;;5041702;28;20664;-79
2023/09/17 01:06:24;;;;;;;0.28;0.28;;;;;;;;;;5042983;28;20030;-81
2023/09/17 01:08:50;;;;;;;0.65;0.20;;;;;;;;;;5019454;28;20034;-80
2023/09/17 01:11:18;;;;;;;0.30;0.20;;;;;;;;;;5041156;28;20044;-81
2023/09/17 01:13:49;;;;;;;0.20;0.17;;;;;;;;;;5035864;28;20045;-79
2023/09/17 01:16:16;;;;;;;0.40;0.30;;;;;;;;;;5035891;28;20042;-81
2023/09/17 01:18:42;;;;;;;0.28;0.15;;;;;;;;;;5032863;28;20037;-82
2023/09/17 01:21:17;;;;;;;0.30;0.30;;;;;;;;;;5035243;28;20041;-84
2023/09/17 01:24:02;;;;;;;1.55;0.60;;;;;;;;;;5019464;28;21370;-81
2023/09/17 01:26:30;;;;;;;0.38;0.22;;;;;;;;;;5010764;28;20088;-80
2023/09/17 01:28:59;;;;;;;0.63;0.25;;;;;;;;;;5018261;28;20628;-81
2023/09/17 01:31:25;;;;;;;0.20;0.10;;;;;;;;;;5018428;28;20984;-82
2023/09/17 01:33:51;;;;;;;0.30;0.30;;;;;;;;;;5035570;28;20065;-80
2023/09/17 01:36:36;;;;;;;0.20;0.10;;;;;;;;;;5014256;28;20111;-81
2023/09/17 01:39:05;;;;;;;0.60;0.43;;;;;;;;;;5031546;28;20042;-81
2023/09/17 01:41:35;;;;;;;0.20;0.20;;;;;;;;;;5012344;28;20044;-81
2023/09/17 01:44:03;;;;;;;0.43;0.22;;;;;;;;;;5016204;28;20041;-81
2023/09/17 01:46:30;;;;;;;0.90;0.45;;;;;;;;;;5015457;28;20036;-82
2023/09/17 01:48:56;;;;;;;0.20;0.17;;;;;;;;;;5034090;28;20040;-81
2023/09/17 01:51:23;;;;;;;0.65;0.63;;;;;;;;;;5018884;28;20072;-83
2023/09/17 01:53:50;;;;;;;0.63;0.47;;;;;;;;;;5013552;28;20065;-82
2023/09/17 01:56:17;;;;;;;0.50;0.50;;;;;;;;;;5014412;28;20041;-83
2023/09/17 01:58:43;;;;;;;0.70;0.28;;;;;;;;;;5015928;28;20063;-82
2023/09/17 02:01:09;;;;;;;0.32;0.28;;;;;;;;;;5037281;28;20033;-81
2023/09/17 02:03:35;;;;;;;0.20;0.20;;;;;;;;;;5038901;28;20045;-81
2023/09/17 02:06:04;;;;;;;0.20;0.20;;;;;;;;;;5019193;28;20045;-78
2023/09/17 02:08:30;;;;;;;0.30;0.22;;;;;;;;;;5031926;28;20039;-80
2023/09/17 02:10:56;;;;;;;0.45;0.20;;;;;;;;;;5016713;28;20108;-81
2023/09/17 02:13:22;;;;;;;0.63;0.43;;;;;;;;;;5012361;28;20057;-82
2023/09/17 02:15:49;;;;;;;0.40;0.40;;;;;;;;;;5014491;28;20433;-81
2023/09/17 02:18:15;;;;;;;0.35;0.30;;;;;;;;;;5017029;28;20471;-81
2023/09/17 02:20:42;;;;;;;1.33;0.40;;;;;;;;;;5018858;28;20037;-81
2023/09/17 02:23:10;;;;;;;0.75;0.52;;;;;;;;;;5030667;28;20052;-81
2023/09/17 02:25:36;;;;;;;0.28;0.28;;;;;;;;;;5015701;28;20091;-81
2023/09/17 02:28:02;;;;;;;0.43;0.43;;;;;;;;;;5032364;28;20045;-81
2023/09/17 02:30:28;;;;;;;1.75;0.22;;;;;;;;;;5013802;28;20039;-82
2023/09/17 02:32:54;;;;;;;0.40;0.30;;;;;;;;;;5030468;28;20056;-81
2023/09/17 02:35:21;;;;;;;0.73;0.47;;;;;;;;;;5026331;28;20157;-82
2023/09/17 02:37:47;;;;;;;0.30;0.30;;;;;;;;;;5012947;28;20120;-80
2023/09/17 02:40:13;;;;;;;0.20;0.15;;;;;;;;;;5013785;28;20057;-82
2023/09/17 02:42:39;;;;;;;0.35;0.35;;;;;;;;;;5007916;28;20075;-81
2023/09/17 02:45:05;;;;;;;0.30;0.30;;;;;;;;;;5012212;28;20444;-81
2023/09/17 02:47:33;;;;;;;0.30;0.20;;;;;;;;;;5011295;28;20033;-81
2023/09/17 02:49:59;;;;;;;0.20;0.10;;;;;;;;;;5007172;28;20038;-82
2023/09/17 02:52:26;;;;;;;0.68;0.68;;;;;;;;;;5025941;28;20600;-82
2023/09/17 02:54:53;;;;;;;0.60;0.30;;;;;;;;;;5013830;28;20053;-82
2023/09/17 02:57:19;;;;;;;0.40;0.30;;;;;;;;;;5010923;28;20536;-81
2023/09/17 02:59:45;;;;;;;0.30;0.30;;;;;;;;;;5012340;28;20069;-81
2023/09/17 03:02:11;;;;;;;0.20;0.10;;;;;;;;;;5013139;28;21085;-80
2023/09/17 03:04:37;;;;;;;0.20;0.20;;;;;;;;;;5029373;28;20561;-83
2023/09/17 03:07:04;;;;;;;0.20;0.10;;;;;;;;;;5025614;28;20034;-82
2023/09/17 03:09:30;;;;;;;0.20;0.17;;;;;;;;;;5028641;28;20053;-82
2023/09/17 03:11:56;;;;;;;0.40;0.35;;;;;;;;;;5012904;28;20068;-80
2023/09/17 03:14:22;;;;;;;0.20;0.20;;;;;;;;;;5029884;28;20041;-81
2023/09/17 03:16:49;;;;;;;0.70;0.50;;;;;;;;;;5012010;28;20042;-81
2023/09/17 03:19:15;;;;;;;0.73;0.32;;;;;;;;;;5031402;28;20117;-83
2023/09/17 03:21:41;;;;;;;0.32;0.32;;;;;;;;;;5013949;28;20049;-81
2023/09/17 03:24:08;;;;;;;0.20;0.00;;;;;;;;;;5023880;28;20237;-81
2023/09/17 03:26:34;;;;;;;2.22;0.45;;;;;;;;;;5009655;28;20037;-81
2023/09/17 03:29:00;;;;;;;1.02;0.40;;;;;;;;;;5030069;28;20045;-82
2023/09/17 03:31:26;;;;;;;0.20;0.20;;;;;;;;;;5006180;28;20033;-80
2023/09/17 03:33:52;;;;;;;0.30;0.30;;;;;;;;;;5013455;28;20041;-82
2023/09/17 03:36:18;;;;;;;0.45;0.30;;;;;;;;;;5034248;28;20041;-80
2023/09/17 03:38:44;;;;;;;0.30;0.30;;;;;;;;;;5029631;28;20029;-80
2023/09/17 03:41:10;;;;;;;0.70;0.55;;;;;;;;;;5024967;28;21034;-80
2023/09/17 03:43:36;;;;;;;0.57;0.32;;;;;;;;;;5011830;28;20076;-83
2023/09/17 03:46:06;;;;;;;0.40;0.35;;;;;;;;;;5012569;28;20045;-82
2023/09/17 03:48:32;;;;;;;0.98;0.50;;;;;;;;;;5007568;28;20034;-81
2023/09/17 03:50:59;;;;;;;0.35;0.20;;;;;;;;;;5026007;28;20091;-80
2023/09/17 03:53:26;;;;;;;0.65;0.65;;;;;;;;;;5007605;28;20061;-79
2023/09/17 03:55:52;;;;;;;0.40;0.30;;;;;;;;;;5022776;28;20085;-82
2023/09/17 03:58:18;;;;;;;0.50;0.40;;;;;;;;;;5005921;28;20041;-82
2023/09/17 04:00:44;;;;;;;0.38;0.35;;;;;;;;;;5024627;28;20069;-80
2023/09/17 04:03:12;;;;;;;0.20;0.20;;;;;;;;;;5010742;28;20121;-83
2023/09/17 04:05:38;;;;;;;0.30;0.20;;;;;;;;;;5014308;28;20572;-81
2023/09/17 04:08:04;;;;;;;1.15;0.50;;;;;;;;;;5013838;28;20088;-82
2023/09/17 04:10:30;;;;;;;0.85;0.52;;;;;;;;;;5029738;28;20441;-81
2023/09/17 04:12:56;;;;;;;0.20;0.20;;;;;;;;;;5010119;28;20073;-82
2023/09/17 04:15:23;;;;;;;0.50;0.40;;;;;;;;;;5033451;28;20053;-82
2023/09/17 04:17:50;;;;;;;0.22;0.22;;;;;;;;;;5031663;28;20087;-81
2023/09/17 04:20:18;;;;;;;0.50;0.32;;;;;;;;;;5027684;28;20041;-82
2023/09/17 04:22:44;;;;;;;0.20;0.15;;;;;;;;;;5036626;28;20052;-81
2023/09/17 04:25:11;;;;;;;0.32;0.28;;;;;;;;;;5032023;28;20037;-80
2023/09/17 04:27:38;;;;;;;0.65;0.20;;;;;;;;;;5025902;28;20037;-81
2023/09/17 04:30:05;;;;;;;0.85;0.63;;;;;;;;;;5028704;28;20095;-81
2023/09/17 04:32:37;;;;;;;0.30;0.30;;;;;;;;;;5031538;28;20067;-82
2023/09/17 04:35:04;;;;;;;0.55;0.38;;;;;;;;;;5031845;28;20060;-81
2023/09/17 04:37:30;;;;;;;0.55;0.32;;;;;;;;;;5033019;28;20053;-81
2023/09/17 04:39:56;;;;;;;0.75;0.73;;;;;;;;;;5014339;28;20650;-81
2023/09/17 04:42:22;;;;;;;0.20;0.10;;;;;;;;;;5003013;28;20520;-81
2023/09/17 04:44:48;;;;;;;0.55;0.55;;;;;;;;;;4982169;28;20046;-81
2023/09/17 04:47:14;;;;;;;0.30;0.20;;;;;;;;;;4993149;28;20038;-81
2023/09/17 04:49:40;;;;;;;0.93;0.52;;;;;;;;;;4990856;28;20046;-80
2023/09/17 04:52:06;;;;;;;0.50;0.28;;;;;;;;;;4991416;28;20057;-80
2023/09/17 04:54:32;;;;;;;0.55;0.47;;;;;;;;;;5009940;28;20053;-79
2023/09/17 04:56:58;;;;;;;0.20;0.10;;;;;;;;;;5005590;28;20572;-80
2023/09/17 04:59:24;;;;;;;0.68;0.45;;;;;;;;;;5004350;28;20125;-79
2023/09/17 05:01:50;;;;;;;0.85;0.30;;;;;;;;;;4989771;28;21822;-79
2023/09/17 05:04:16;;;;;;;0.80;0.73;;;;;;;;;;5010521;28;20526;-80
2023/09/17 05:06:42;;;;;;;0.75;0.75;;;;;;;;;;5002056;28;20141;-81
2023/09/17 05:09:09;;;;;;;0.30;0.30;;;;;;;;;;5008955;28;20046;-80
2023/09/17 05:11:35;;;;;;;0.20;0.15;;;;;;;;;;5017480;28;20045;-80
2023/09/17 05:14:01;;;;;;;0.45;0.35;;;;;;;;;;4999992;28;20506;-80
2023/09/17 05:16:27;;;;;;;0.22;0.15;;;;;;;;;;4986624;28;20030;-81
2023/09/17 05:18:53;;;;;;;0.25;0.17;;;;;;;;;;4995257;28;20062;-81
2023/09/17 05:21:19;;;;;;;0.40;0.40;;;;;;;;;;5007608;28;20033;-81
2023/09/17 05:23:46;;;;;;;0.77;0.60;;;;;;;;;;5010256;28;20065;-80
2023/09/17 05:26:12;;;;;;;0.90;0.50;;;;;;;;;;4987383;28;20045;-81
2023/09/17 05:28:38;;;;;;;0.30;0.30;;;;;;;;;;4986968;28;20034;-81
2023/09/17 05:31:04;;;;;;;0.20;0.17;;;;;;;;;;4986923;28;20037;-82
2023/09/17 05:33:30;;;;;;;0.35;0.35;;;;;;;;;;5003703;28;20135;-80
2023/09/17 05:35:56;;;;;;;0.50;0.40;;;;;;;;;;4991195;28;20042;-81
2023/09/17 05:38:29;;;;;;;0.57;0.20;;;;;;;;;;4992118;28;20501;-82
2023/09/17 05:40:55;;;;;;;;;;;;;;;;;;5006907;28;20840;-81
2023/09/17 05:43:21;;;;;;;0.20;0.20;;;;;;;;;;5002340;28;19928;-80
2023/09/17 05:45:47;;;;;;;0.60;0.43;;;;;;;;;;5008490;28;20128;-80
2023/09/17 05:48:13;;;;;;;0.20;0.10;;;;;;;;;;5007601;28;20041;-83
2023/09/17 05:50:39;;;;;;;0.63;0.63;;;;;;;;;;5003077;28;20133;-81
2023/09/17 05:53:05;;;;;;;0.25;0.25;;;;;;;;;;5009203;28;20064;-82
2023/09/17 05:55:31;;;;;;;0.30;0.30;;;;;;;;;;5004791;28;20564;-83
2023/09/17 05:57:58;;;;;;;1.20;0.95;;;;;;;;;;5003642;28;20399;-82
2023/09/17 06:00:24;;;;;;;1.27;0.30;;;;;;;;;;5001241;28;20046;-83
2023/09/17 06:02:50;;;;;;;0.25;0.15;;;;;;;;;;5005543;28;20564;-82
2023/09/17 06:05:16;;;;;;;1.08;0.63;;;;;;;;;;4989082;28;20141;-82
2023/09/17 06:07:42;;;;;;;0.20;0.10;;;;;;;;;;5002440;28;20499;-84
2023/09/17 06:10:08;;;;;;;0.38;0.30;;;;;;;;;;5004798;28;20137;-82
2023/09/17 06:12:34;;;;;;;0.80;0.38;;;;;;;;;;4991582;28;20049;-83
2023/09/17 06:15:00;;;;;;;0.45;0.30;;;;;;;;;;4988937;28;20112;-84
2023/09/17 06:17:26;;;;;;;0.20;0.10;;;;;;;;;;5005150;28;20084;-82
2023/09/17 06:19:52;;;;;;;0.30;0.25;;;;;;;;;;5024845;28;20120;-85
2023/09/17 06:22:18;;;;;;;0.75;0.43;;;;;;;;;;4993603;28;20068;-81
2023/09/17 06:24:45;;;;;;;0.20;0.10;;;;;;;;;;5003897;28;20049;-83
2023/09/17 06:27:17;;;;;;;0.63;0.35;;;;;;;;;;5008656;28;20122;-80
2023/09/17 06:29:43;;;;;;;1.25;0.45;;;;;;;;;;4991134;28;20057;-81
2023/09/17 06:32:09;;;;;;;0.30;0.30;;;;;;;;;;5007579;28;20061;-81
2023/09/17 06:34:35;;;;;;;0.20;0.10;;;;;;;;;;5000356;23;20045;-84
2023/09/17 06:37:02;;;;;;;0.20;0.15;;;;;;;;;;5013381;28;20531;-82
2023/09/17 06:39:28;;;;;;;0.20;0.15;;;;;;;;;;5020713;28;20039;-84
2023/09/17 06:41:54;;;;;;;0.35;0.20;;;;;;;;;;5009484;28;20052;-83
2023/09/17 06:44:23;;;;;;;0.50;0.30;;;;;;;;;;5004131;28;20046;-83
2023/09/17 06:46:49;;;;;;;0.85;0.47;;;;;;;;;;5012364;28;20075;-83
2023/09/17 06:49:15;;;;;;;0.22;0.13;;;;;;;;;;5020527;28;20543;-83
2023/09/17 06:51:41;;;;;;;0.30;0.20;;;;;;;;;;5020132;28;20037;-84
2023/09/17 06:54:07;;;;;;;0.20;0.20;;;;;;;;;;5024313;28;20459;-83
2023/09/17 06:56:33;;;;;;;0.20;0.10;;;;;;;;;;5024116;28;20103;-84
2023/09/17 06:58:59;;;;;;;0.93;0.52;;;;;;;;;;5009564;28;20490;-82
2023/09/17 07:01:25;;;;;;;0.20;0.10;;;;;;;;;;5020737;28;20041;-84
2023/09/17 07:03:52;;;;;;;0.38;0.38;;;;;;;;;;5019753;28;20049;-83
2023/09/17 07:06:18;;;;;;;0.30;0.15;;;;;;;;;;5021547;28;20167;-84
2023/09/17 07:08:44;;;;;;;0.43;0.32;;;;;;;;;;5005169;28;20038;-84
2023/09/17 07:11:10;;;;;;;1.42;0.55;;;;;;;;;;5017328;28;20037;-81
2023/09/17 07:13:38;;;;;;;0.20;0.10;;;;;;;;;;5002783;28;20069;-84
2023/09/17 07:16:05;;;;;;;0.90;0.63;;;;;;;;;;5004295;28;20438;-82
2023/09/17 07:18:31;;;;;;;0.25;0.20;;;;;;;;;;5021933;28;20501;-84
2023/09/17 07:20:58;;;;;;;0.20;0.20;;;;;;;;;;5023101;28;20049;-83
2023/09/17 07:23:24;;;;;;;0.20;0.20;;;;;;;;;;5022504;28;20113;-81
2023/09/17 07:25:50;;;;;;;0.68;0.30;;;;;;;;;;5000720;28;20065;-82
2023/09/17 07:28:20;;;;;;;0.20;0.10;;;;;;;;;;5021084;28;20505;-84
2023/09/17 07:30:46;;;;;;;0.40;0.40;;;;;;;;;;5014806;28;20037;-84
2023/09/17 07:33:12;;;;;;;0.35;0.28;;;;;;;;;;5021744;28;20030;-81
2023/09/17 07:35:39;;;;;;;0.45;0.45;;;;;;;;;;5004766;28;20103;-82
2023/09/17 07:38:05;;;;;;;0.68;0.47;;;;;;;;;;5002275;28;20045;-83
2023/09/17 07:40:32;;;;;;;1.00;0.65;;;;;;;;;;5001715;28;20187;-85
2023/09/17 07:43:04;;;;;;;0.20;0.10;;;;;;;;;;5022719;28;20045;-84
2023/09/17 07:45:33;;;;;;;0.30;0.28;;;;;;;;;;5022447;28;20033;-85
2023/09/17 07:47:59;;;;;;;0.50;0.35;;;;;;;;;;5008486;28;20317;-83
2023/09/17 07:50:25;;;;;;;0.38;0.38;;;;;;;;;;5025996;28;20037;-84
2023/09/17 07:52:51;;;;;;;0.68;0.28;;;;;;;;;;5008174;28;20154;-85
2023/09/17 07:55:18;;;;;;;0.30;0.25;;;;;;;;;;5010880;28;20417;-83
2023/09/17 07:57:46;;;;;;;1.08;0.38;;;;;;;;;;5008491;28;20414;-85
2023/09/17 08:00:15;;;;;;;0.50;0.30;;;;;;;;;;5011121;28;20493;-84
2023/09/17 08:02:42;;;;;;;0.20;0.10;;;;;;;;;;5006912;28;20037;-84
2023/09/17 08:05:09;;;;;;;0.32;0.32;;;;;;;;;;5022407;28;20117;-81
2023/09/17 08:07:36;;;;;;;0.40;0.40;;;;;;;;;;5018547;28;20099;-84
2023/09/17 08:10:03;;;;;;;0.20;0.10;;;;;;;;;;4999472;28;21248;-81
2023/09/17 08:12:31;;;;;;;0.38;0.38;;;;;;;;;;5001066;28;20047;-82
2023/09/17 08:14:57;;;;;;;0.20;0.10;;;;;;;;;;5004153;28;20084;-83
2023/09/17 08:17:31;;;;;;;0.35;0.30;;;;;;;;;;5022075;28;20047;-84
2023/09/17 08:19:58;;;;;;;0.68;0.45;;;;;;;;;;5023760;28;20060;-82
2023/09/17 08:22:27;;;;;;;0.20;0.20;;;;;;;;;;5003581;28;20700;-81
2023/09/17 08:24:53;;;;;;;0.50;0.50;;;;;;;;;;5026674;28;20042;-82
2023/09/17 08:27:19;;;;;;;0.20;0.20;;;;;;;;;;5022270;28;20041;-85
2023/09/17 08:29:45;;;;;;;0.52;0.30;;;;;;;;;;5011168;28;20037;-83
2023/09/17 08:32:12;;;;;;;1.23;0.45;;;;;;;;;;5011676;28;20061;-81
2023/09/17 08:34:44;;;;;;;0.20;0.20;;;;;;;;;;5007690;28;20034;-84
2023/09/17 08:37:13;;;;;;;0.60;0.47;;;;;;;;;;5022214;28;20041;-84
2023/09/17 08:39:39;;;;;;;0.20;0.10;;;;;;;;;;5018909;28;20069;-82
2023/09/17 08:42:05;;;;;;;0.20;0.10;;;;;;;;;;5010734;28;20408;-85
2023/09/17 08:44:33;;;;;;;0.20;0.20;;;;;;;;;;5010579;28;20048;-83
2023/09/17 08:46:59;;;;;;;0.85;0.50;;;;;;;;;;5004425;28;20268;-83
2023/09/17 08:49:26;;;;;;;0.47;0.40;;;;;;;;;;5004619;28;20326;-82
2023/09/17 08:51:53;;;;;;;0.38;0.38;;;;;;;;;;5008064;28;20038;-84
2023/09/17 08:54:25;;;;;;;0.20;0.15;;;;;;;;;;5021856;28;20558;-82
2023/09/17 08:56:51;;;;;;;;;;;;;;;;;;5010632;28;20049;-83
2023/09/17 08:59:21;;;;;;;0.20;0.10;;;;;;;;;;5040465;28;19921;-82
2023/09/17 09:01:48;;;;;;;0.20;0.20;;;;;;;;;;5022673;28;20127;-83
2023/09/17 09:04:16;;;;;;;0.20;0.13;;;;;;;;;;5024708;28;20041;-83
2023/09/17 09:06:43;;;;;;;0.60;0.60;;;;;;;;;;5013613;28;20405;-84
2023/09/17 09:09:12;;;;;;;0.30;0.20;;;;;;;;;;5018858;28;20545;-85
2023/09/17 09:11:42;;;;;;;0.20;0.10;;;;;;;;;;5009469;28;20136;-81
2023/09/17 09:14:08;;;;;;;0.28;0.17;;;;;;;;;;5025123;28;20041;-84
2023/09/17 09:16:37;;;;;;;0.20;0.17;;;;;;;;;;5015119;28;20048;-85
2023/09/17 09:19:03;;;;;;;0.20;0.10;;;;;;;;;;5025699;28;20496;-82
2023/09/17 09:21:29;;;;;;;1.17;0.40;;;;;;;;;;5013724;28;20041;-83
2023/09/17 09:23:59;;;;;;;0.20;0.10;;;;;;;;;;5011948;28;20041;-83
2023/09/17 09:26:32;;;;;;;0.20;0.10;;;;;;;;;;5020614;28;20036;-81
2023/09/17 09:28:58;;;;;;;0.90;0.38;;;;;;;;;;5010696;28;20466;-84
2023/09/17 09:31:26;;;;;;;1.00;0.30;;;;;;;;;;5014931;28;20049;-81
2023/09/17 09:33:52;;;;;;;0.20;0.20;;;;;;;;;;5010181;28;20441;-84
2023/09/17 09:36:19;;;;;;;0.20;0.20;;;;;;;;;;5009686;28;20746;-83
2023/09/17 09:38:45;;;;;;;0.20;0.17;;;;;;;;;;5010774;28;20090;-85
2023/09/17 09:41:11;;;;;;;0.38;0.35;;;;;;;;;;5028074;28;20038;-81
2023/09/17 09:43:37;;;;;;;0.30;0.20;;;;;;;;;;5031737;28;20053;-86
2023/09/17 09:46:04;;;;;;;0.20;0.20;;;;;;;;;;5017031;28;20083;-84
2023/09/17 09:48:31;;;;;;;0.20;0.20;;;;;;;;;;5028099;28;20395;-82
2023/09/17 09:50:58;;;;;;;0.50;0.32;;;;;;;;;;5027183;28;20061;-83
2023/09/17 09:53:24;;;;;;;0.20;0.20;;;;;;;;;;5027258;28;20069;-83
2023/09/17 09:55:50;;;;;;;0.20;0.10;;;;;;;;;;5024036;28;20046;-83
2023/09/17 09:58:17;;;;;;;0.98;0.50;;;;;;;;;;5026498;28;20048;-81
2023/09/17 10:00:45;;;;;;;0.20;0.17;;;;;;;;;;5022654;28;20453;-82
2023/09/17 10:03:11;;;;;;;0.45;0.32;;;;;;;;;;5005989;28;20574;-82
2023/09/17 10:05:39;;;;;;;0.47;0.43;;;;;;;;;;5022013;28;20034;-82
2023/09/17 10:08:07;;;;;;;0.20;0.20;;;;;;;;;;5012010;28;20053;-83
2023/09/17 10:10:34;;;;;;;0.65;0.65;;;;;;;;;;5025467;28;20041;-83
2023/09/17 10:13:00;;;;;;;1.10;0.60;;;;;;;;;;5017928;28;20048;-83
2023/09/17 10:15:27;;;;;;;0.28;0.10;;;;;;;;;;5022873;28;20386;-82
2023/09/17 10:17:54;;;;;;;0.20;0.10;;;;;;;;;;5007903;28;20365;-82
2023/09/17 10:20:22;;;;;;;0.20;0.20;;;;;;;;;;5023903;28;20037;-83
2023/09/17 10:22:49;;;;;;;0.35;0.35;;;;;;;;;;5024643;28;20409;-82
2023/09/17 10:25:17;;;;;;;0.20;0.13;;;;;;;;;;5018615;28;20053;-81
2023/09/17 10:27:45;;;;;;;0.22;0.15;;;;;;;;;;5016820;28;20041;-81
2023/09/17 10:30:13;;;;;;;0.90;0.40;;;;;;;;;;5026267;28;20467;-82
2023/09/17 10:32:39;;;;;;;0.22;0.22;;;;;;;;;;5021132;28;20120;-81
2023/09/17 10:35:06;;;;;;;0.30;0.20;;;;;;;;;;5023448;28;20045;-81
2023/09/17 10:37:33;;;;;;;0.43;0.38;;;;;;;;;;5024487;28;20051;-82
2023/09/17 10:40:00;;;;;;;0.52;0.52;;;;;;;;;;5002071;28;20546;-83
2023/09/17 10:42:29;;;;;;;0.22;0.13;;;;;;;;;;5013300;28;20560;-80
2023/09/17 10:44:56;;;;;;;0.20;0.13;;;;;;;;;;5018918;28;20093;-81
2023/09/17 10:47:24;;;;;;;0.25;0.20;;;;;;;;;;5019432;28;20048;-83
2023/09/17 10:49:51;;;;;;;0.20;0.17;;;;;;;;;;5020784;28;20846;-80
2023/09/17 10:52:17;;;;;;;0.20;0.00;;;;;;;;;;5008046;28;20156;-82
2023/09/17 10:54:44;;;;;;;0.50;0.30;;;;;;;;;;5024117;28;20033;-84
2023/09/17 10:57:22;;;;;;;0.20;0.17;;;;;;;;;;5023985;28;20051;-82
2023/09/17 10:59:48;;;;;;;0.88;0.40;;;;;;;;;;5020341;28;20052;-83
2023/09/17 11:02:15;;;;;;;0.75;0.63;;;;;;;;;;5020699;28;20128;-82
2023/09/17 11:04:42;;;;;;;0.20;0.10;;;;;;;;;;5028620;28;20049;-83
2023/09/17 11:07:09;;;;;;;0.40;0.40;;;;;;;;;;5012461;28;20075;-82
2023/09/17 11:09:36;;;;;;;0.20;0.20;;;;;;;;;;5012814;28;20037;-83
2023/09/17 11:12:02;;;;;;;0.57;0.45;;;;;;;;;;5006333;28;20041;-83
2023/09/17 11:14:29;;;;;;;0.20;0.10;;;;;;;;;;5002329;28;20056;-82
2023/09/17 11:16:55;;;;;;;0.20;0.08;;;;;;;;;;5027572;28;20053;-81
2023/09/17 11:19:22;;;;;;;0.20;0.20;;;;;;;;;;5006602;28;20041;-81
2023/09/17 11:22:08;;;;;;;0.35;0.30;;;;;;;;;;5027465;28;20049;-82
2023/09/17 11:24:36;;;;;;;0.20;0.10;;;;;;;;;;5011040;28;20040;-81
2023/09/17 11:27:04;;;;;;;0.50;0.47;;;;;;;;;;5027837;28;20050;-82
2023/09/17 11:29:39;;;;;;;0.55;0.20;;;;;;;;;;5009112;28;20042;-81
2023/09/17 11:32:05;;;;;;;0.25;0.15;;;;;;;;;;5011482;28;20304;-82
2023/09/17 11:34:34;;;;;;;0.30;0.20;;;;;;;;;;5030847;28;20084;-82
2023/09/17 11:37:00;;;;;;;0.20;0.10;;;;;;;;;;5025780;28;20098;-81
2023/09/17 11:39:26;;;;;;;0.43;0.20;;;;;;;;;;5012625;28;20505;-83
2023/09/17 11:42:03;;;;;;;0.20;0.10;;;;;;;;;;5005156;28;20037;-83
2023/09/17 11:44:29;;;;;;;0.32;0.20;;;;;;;;;;5016206;28;20037;-83
2023/09/17 11:46:56;;;;;;;0.20;0.10;;;;;;;;;;5009818;28;20045;-81
2023/09/17 11:49:22;;;;;;;0.20;0.13;;;;;;;;;;5029687;28;20038;-82
2023/09/17 11:51:48;;;;;;;0.20;0.10;;;;;;;;;;5030380;28;20045;-80
2023/09/17 11:54:20;;;;;;;0.43;0.28;;;;;;;;;;5028176;28;20033;-81
2023/09/17 11:56:55;;;;;;;0.25;0.22;;;;;;;;;;5029105;28;20132;-81
2023/09/17 11:59:26;;;;;;;0.20;0.20;;;;;;;;;;5032856;28;20099;-80
2023/09/17 12:01:54;;;;;;;0.57;0.40;;;;;;;;;;5024997;28;20044;-81
2023/09/17 12:04:30;;;;;;;1.45;0.50;;;;;;;;;;5028166;28;20052;-82
2023/09/17 12:06:57;;;;;;;0.50;0.20;;;;;;;;;;5032189;28;20128;-81
2023/09/17 12:11:56;;;;;;;0.50;0.32;;;;;;;;;;5028881;28;20091;-80
2023/09/17 12:14:22;;;;;;;0.50;0.32;;;;;;;;;;5021541;28;20427;-81
2023/09/17 12:16:49;;;;;;;0.20;0.10;;;;;;;;;;5027130;28;20038;-81
2023/09/17 12:19:15;;;;;;;0.20;0.17;;;;;;;;;;5021397;28;20084;-81
2023/09/17 12:21:41;;;;;;;0.30;0.20;;;;;;;;;;5025436;28;20140;-80
2023/09/17 12:24:18;;;;;;;0.50;0.30;;;;;;;;;;5025973;28;20049;-80
2023/09/17 12:27:16;;;;;;;0.20;0.10;;;;;;;;;;5024099;28;20049;-80
2023/09/17 12:29:43;;;;;;;0.20;0.17;;;;;;;;;;5024568;28;20033;-81
2023/09/17 12:32:10;;;;;;;0.47;0.20;;;;;;;;;;5028997;28;20117;-81
2023/09/17 12:34:37;;;;;;;0.30;0.30;;;;;;;;;;5032615;23;20113;-77
2023/09/17 12:37:05;;;;;;;0.30;0.25;;;;;;;;;;4977916;28;20045;-78
2023/09/17 12:39:31;;;;;;;0.35;0.13;;;;;;;;;;4982616;28;20039;-76
2023/09/17 12:41:57;;;;;;;0.75;0.30;;;;;;;;;;4980631;28;20039;-78
2023/09/17 12:44:26;;;;;;;1.30;0.60;;;;;;;;;;4982252;28;20042;-77
2023/09/17 12:46:52;;;;;;;2.20;0.43;;;;;;;;;;4979913;28;20118;-78
2023/09/17 12:49:18;;;;;;;0.50;0.20;;;;;;;;;;4980417;28;20034;-78
2023/09/17 12:51:44;;;;;;;3.17;0.50;;;;;;;;;;4985156;28;20713;-78
2023/09/17 12:54:11;;;;;;;1.75;0.65;;;;;;;;;;4978726;28;22294;-77
2023/09/17 12:56:38;;;;;;;0.70;0.38;;;;;;;;;;4967443;28;21262;-78
2023/09/17 12:59:04;;;;;;;0.65;0.40;;;;;;;;;;4980757;28;20039;-78
2023/09/17 13:01:30;;;;;;;0.22;0.22;;;;;;;;;;4980010;28;20121;-78
2023/09/17 13:04:02;;;;;;;0.30;0.30;;;;;;;;;;4966281;28;20474;-77
2023/09/17 13:06:28;;;;;;;0.20;0.20;;;;;;;;;;4979250;28;20046;-78
2023/09/17 13:08:54;;;;;;;0.45;0.17;;;;;;;;;;4975571;28;20062;-78
2023/09/17 13:11:20;;;;;;;0.20;0.10;;;;;;;;;;4966387;28;20511;-78
2023/09/17 13:13:47;;;;;;;0.30;0.30;;;;;;;;;;4986712;28;20046;-78
2023/09/17 13:16:13;;;;;;;0.20;0.15;;;;;;;;;;4979186;28;20048;-78
2023/09/17 13:18:40;;;;;;;0.20;0.10;;;;;;;;;;4984577;28;20081;-78
2023/09/17 13:21:06;;;;;;;0.20;0.13;;;;;;;;;;4979471;28;22461;-79
2023/09/17 13:23:33;;;;;;;0.75;0.45;;;;;;;;;;4980566;28;20042;-78
2023/09/17 13:25:59;;;;;;;0.20;0.20;;;;;;;;;;4982217;28;20082;-79
2023/09/17 13:28:25;;;;;;;1.77;0.70;;;;;;;;;;4986592;28;20040;-79
2023/09/17 13:30:51;;;;;;;0.55;0.30;;;;;;;;;;4977502;28;20039;-78
2023/09/17 13:33:17;;;;;;;0.40;0.40;;;;;;;;;;4981767;28;20514;-80
2023/09/17 13:35:45;;;;;;;5.07;0.88;;;;;;;;;;4967400;28;20753;-78
2023/09/17 13:38:12;;;;;;;1.05;0.68;;;;;;;;;;4961749;28;20038;-77
2023/09/17 13:40:48;;;;;;;0.30;0.30;;;;;;;;;;4989175;28;20038;-80
2023/09/17 13:43:15;;;;;;;0.25;0.20;;;;;;;;;;4980802;28;20042;-79
2023/09/17 13:45:54;;;;;;;1.17;0.52;;;;;;;;;;4966823;28;20045;-78
2023/09/17 13:48:21;;;;;;;1.23;0.65;;;;;;;;;;4979601;28;20042;-80
2023/09/17 13:50:47;;;;;;;0.93;0.60;;;;;;;;;;4981376;28;20034;-78
2023/09/17 13:53:14;;;;;;;0.85;0.80;;;;;;;;;;4981461;28;22412;-81
2023/09/17 13:55:40;;;;;;;0.65;0.45;;;;;;;;;;4984908;28;20034;-82
2023/09/17 13:58:06;;;;;;;0.20;0.20;;;;;;;;;;4969415;28;20046;-79
2023/09/17 14:00:32;;;;;;;0.55;0.55;;;;;;;;;;4981575;28;20038;-78
2023/09/17 14:03:05;;;;;;;0.63;0.50;;;;;;;;;;4966751;28;20632;-79
2023/09/17 14:05:31;;;;;;;0.93;0.88;;;;;;;;;;4982226;28;20551;-78
2023/09/17 14:07:57;;;;;;;0.52;0.52;;;;;;;;;;4976024;28;20046;-78
2023/09/17 14:10:23;;;;;;;0.77;0.77;;;;;;;;;;4991998;28;20153;-81
2023/09/17 14:12:49;;;;;;;0.93;0.85;;;;;;;;;;4986031;28;20366;-78
2023/09/17 14:15:15;;;;;;;0.85;0.82;;;;;;;;;;4987569;28;20600;-78
2023/09/17 14:17:41;;;;;;;0.20;0.13;;;;;;;;;;4981702;28;20042;-78
2023/09/17 14:20:08;;;;;;;0.30;0.25;;;;;;;;;;4971926;28;20430;-78
2023/09/17 14:22:34;;;;;;;0.28;0.25;;;;;;;;;;4978333;28;20070;-79
2023/09/17 14:25:01;;;;;;;0.63;0.63;;;;;;;;;;4958970;28;20051;-79
2023/09/17 14:27:27;;;;;;;0.38;0.38;;;;;;;;;;4968434;28;20046;-77
2023/09/17 14:29:53;;;;;;;0.82;0.52;;;;;;;;;;4984077;28;20042;-79
2023/09/17 14:32:22;;;;;;;1.90;0.75;;;;;;;;;;4998617;28;20518;-80
2023/09/17 14:34:48;;;;;;;1.58;0.88;;;;;;;;;;4984331;28;20454;-79
2023/09/17 14:37:14;;;;;;;0.63;0.38;;;;;;;;;;4989716;28;20070;-82
2023/09/17 14:39:40;;;;;;;0.20;0.20;;;;;;;;;;4983345;28;20058;-78
2023/09/17 14:42:09;;;;;;;0.73;0.73;;;;;;;;;;4978268;28;20049;-79
2023/09/17 14:44:35;;;;;;;0.52;0.52;;;;;;;;;;4975371;28;20507;-80